This is the latest recevied weather packets stored in our database for station/object K5GHS-1. If no packets are shown the sender has not sent any weather packets the latest 10 day(s).
| Time | Temp. | Humidity | Pressure | Rain* | Wind** | Luminosity | Snow |
|---|---|---|---|---|---|---|---|
| 1777674382 | 18.89° C | 58% | 1013.2 hPa | 0 mm | - | 86 W/m² | - |
| 1777674079 | 18.33° C | 59% | 1013.3 hPa | 0 mm | - | 89 W/m² | - |
| 1777673776 | 18.33° C | 58% | 1013.2 hPa | 0 mm | - | 85 W/m² | - |
| 1777672564 | 18.33° C | 57% | 1013.6 hPa | 0 mm | - | 91 W/m² | - |
| 1777672260 | 18.89° C | 59% | 1013.1 hPa | 0 mm | - | 90 W/m² | - |
| 1777671955 | 18.89° C | 58% | 1013.2 hPa | 0 mm | - | 94 W/m² | - |
| 1777671348 | 18.89° C | 58% | 1013.2 hPa | 0 mm | - | 120 W/m² | - |
| 1777671044 | 18.33° C | 57% | 1013.4 hPa | 0 mm | - | 127 W/m² | - |
| 1777670740 | 18.89° C | 56% | 1013.2 hPa | 0 mm | - | 132 W/m² | - |
| 1777670437 | 18.89° C | 57% | 1013.2 hPa | 0 mm | - | 140 W/m² | - |
| 1777670134 | 18.89° C | 59% | 1013.9 hPa | 0 mm | - | 177 W/m² | - |
| 1777669832 | 18.33° C | 58% | 1013.8 hPa | 0 mm | - | 200 W/m² | - |
| 1777669227 | 18.89° C | 57% | 1013.7 hPa | 0 mm | - | 190 W/m² | - |
| 1777668620 | 18.89° C | 57% | 1014.1 hPa | 0 mm | - | 216 W/m² | - |
| 1777667103 | 18.33° C | 56% | 1014.4 hPa | 0 mm | - | 118 W/m² | - |
| 1777666799 | 18.33° C | 56% | 1014.4 hPa | 0 mm | - | 123 W/m² | - |
| 1777664980 | 18.33° C | 55% | 1014 hPa | 0 mm | - | 115 W/m² | - |
| 1777663162 | 18.89° C | 54% | 1013.6 hPa | 0 mm | - | 206 W/m² | - |
| 1777661952 | 19.44° C | 55% | 1013.8 hPa | 0 mm | - | 261 W/m² | - |
| 1777660741 | 20° C | 52% | 1014.2 hPa | 0 mm | - | 578 W/m² | - |
| 1777660439 | 19.44° C | 51% | 1014.4 hPa | 0 mm | - | 587 W/m² | - |
| 1777660136 | 20° C | 53% | 1014.5 hPa | 0 mm | - | 458 W/m² | - |
| 1777659832 | 20° C | 55% | 1014.4 hPa | 0 mm | - | 416 W/m² | - |
| 1777659529 | 19.44° C | 53% | 1014.3 hPa | 0 mm | - | 622 W/m² | - |
| 1777659226 | 18.89° C | 56% | 1014.5 hPa | 0 mm | - | 516 W/m² | - |
* Rain latest hour (hover to see other rain measurements)
** Current wind speed in m/s (hover to see current wind gust speed)